Time;durP1;ratioP1;P1;durP2;ratioP2;P2;SDS_P1;SDS_P2;PMS_P1;PMS_P2;Temp;Humidity;BMP_temperature;BMP_pressure;BME280_temperature;BME280_humidity;BME280_pressure;Samples;Min_cycle;Max_cycle;Signal;HPM_P1;HPM_P2
2022/06/16 00:00:33;;;;;;;;;17.00;17.00;;;;;;;;5022513;28;8926;-83
2022/06/16 00:03:01;;;;;;;;;17.25;15.50;;;;;;;;5025555;28;9007;-83
2022/06/16 00:05:31;;;;;;;;;18.25;18.25;;;;;;;;5025788;28;9752;-83
2022/06/16 00:07:59;;;;;;;;;16.75;16.75;;;;;;;;5022380;28;8885;-83
2022/06/16 00:10:26;;;;;;;;;22.25;20.25;;;;;;;;5025705;28;9718;-83
2022/06/16 00:12:53;;;;;;;;;21.50;19.75;;;;;;;;5031395;28;9781;-83
2022/06/16 00:15:25;;;;;;;;;19.50;19.50;;;;;;;;5035173;28;8871;-83
2022/06/16 00:17:53;;;;;;;;;18.25;17.25;;;;;;;;5012349;28;8977;-82
2022/06/16 00:20:21;;;;;;;;;21.50;18.25;;;;;;;;5035630;28;8986;-83
2022/06/16 00:22:48;;;;;;;;;17.25;16.00;;;;;;;;5028904;28;8858;-83
2022/06/16 00:25:16;;;;;;;;;19.75;19.75;;;;;;;;5025598;28;8954;-83
2022/06/16 00:27:44;;;;;;;;;18.75;17.00;;;;;;;;5026703;28;8888;-81
2022/06/16 00:30:13;;;;;;;;;17.00;16.50;;;;;;;;5021079;28;8865;-82
2022/06/16 00:32:42;;;;;;;;;17.75;14.75;;;;;;;;5031831;28;9001;-83
2022/06/16 00:35:11;;;;;;;;;20.50;20.50;;;;;;;;5022973;28;8868;-84
2022/06/16 00:37:38;;;;;;;;;22.50;20.50;;;;;;;;5024798;28;8881;-85
2022/06/16 00:40:07;;;;;;;;;21.75;21.75;;;;;;;;5022941;28;8865;-83
2022/06/16 00:42:34;;;;;;;;;18.50;18.50;;;;;;;;5021781;28;8993;-82
2022/06/16 00:45:02;;;;;;;;;19.00;19.00;;;;;;;;5028128;28;10190;-82
2022/06/16 00:47:31;;;;;;;;;21.75;21.75;;;;;;;;5030881;28;8939;-82
2022/06/16 00:50:02;;;;;;;;;17.50;17.50;;;;;;;;5029072;28;8867;-81
2022/06/16 00:52:32;;;;;;;;;21.25;19.50;;;;;;;;5019726;28;8903;-82
2022/06/16 00:55:04;;;;;;;;;18.00;18.00;;;;;;;;5033034;28;8889;-82
2022/06/16 00:57:34;;;;;;;;;19.00;19.00;;;;;;;;5034144;28;8868;-83
2022/06/16 01:00:06;;;;;;;;;23.00;20.50;;;;;;;;5024510;28;8877;-82
2022/06/16 01:02:33;;;;;;;;;19.00;19.00;;;;;;;;5028187;28;8806;-83
2022/06/16 01:05:01;;;;;;;;;25.50;25.50;;;;;;;;5024834;28;8891;-83
2022/06/16 01:07:32;;;;;;;;;16.00;16.00;;;;;;;;5024627;28;8979;-83
2022/06/16 01:10:00;;;;;;;;;17.75;16.75;;;;;;;;5027687;28;9937;-82
2022/06/16 01:15:48;;;;;;;;;20.50;17.50;;;;;;;;5014972;28;8855;-83
2022/06/16 01:18:23;;;;;;;;;19.50;17.25;;;;;;;;5030585;28;8877;-83
2022/06/16 01:20:58;;;;;;;;;15.50;15.25;;;;;;;;5030825;28;8861;-84
2022/06/16 01:24:04;;;;;;;;;12.50;12.50;;;;;;;;5032882;28;8877;-82
2022/06/16 01:26:59;;;;;;;;;15.00;15.00;;;;;;;;4998465;28;8987;-84
2022/06/16 01:29:34;;;;;;;;;16.25;15.75;;;;;;;;5012527;28;9615;-84
2022/06/16 01:32:09;;;;;;;;;17.75;17.25;;;;;;;;5010738;28;8820;-82
2022/06/16 01:34:43;;;;;;;;;18.50;17.75;;;;;;;;5027242;28;8884;-82
2022/06/16 01:37:17;;;;;;;;;22.33;22.33;;;;;;;;5023806;28;8869;-83
2022/06/16 01:39:48;;;;;;;;;18.00;18.00;;;;;;;;5021894;28;9095;-83
2022/06/16 01:42:17;;;;;;;;;14.00;14.00;;;;;;;;5026238;28;9014;-81
2022/06/16 01:44:55;;;;;;;;;20.33;19.33;;;;;;;;5025461;28;9040;-85
2022/06/16 01:47:24;;;;;;;;;17.33;17.33;;;;;;;;5017460;28;8989;-82
2022/06/16 01:49:54;;;;;;;;;16.25;16.25;;;;;;;;5021984;28;8934;-85
2022/06/16 01:52:28;;;;;;;;;21.67;20.67;;;;;;;;5025343;28;9003;-81
2022/06/16 01:54:59;;;;;;;;;19.67;18.67;;;;;;;;5013566;28;8971;-84
2022/06/16 01:57:32;;;;;;;;;17.00;16.00;;;;;;;;5026803;28;9081;-85
2022/06/16 02:00:06;;;;;;;;;13.50;13.00;;;;;;;;5028896;28;8982;-82
2022/06/16 02:02:36;;;;;;;;;17.00;17.00;;;;;;;;5020956;28;8813;-81
2022/06/16 02:05:07;;;;;;;;;21.75;19.50;;;;;;;;5010537;28;8855;-85
2022/06/16 02:07:38;;;;;;;;;19.75;17.00;;;;;;;;5033221;28;9498;-82
2022/06/16 02:10:10;;;;;;;;;17.75;17.75;;;;;;;;5032909;28;8893;-81
2022/06/16 02:12:57;;;;;;;;;21.33;21.33;;;;;;;;5028422;28;8895;-84
2022/06/16 02:15:36;;;;;;;;;21.00;19.67;;;;;;;;5030040;28;9020;-83
2022/06/16 02:18:06;;;;;;;;;20.00;18.00;;;;;;;;5025994;28;9020;-83
2022/06/16 02:20:41;;;;;;;;;21.67;21.00;;;;;;;;5026360;28;9018;-83
2022/06/16 02:23:09;;;;;;;;;19.67;19.67;;;;;;;;5037560;28;9173;-83
2022/06/16 02:25:36;;;;;;;;;18.00;18.00;;;;;;;;5031731;28;9030;-82
2022/06/16 02:28:04;;;;;;;;;18.67;18.67;;;;;;;;5042420;28;8956;-83
2022/06/16 02:30:45;;;;;;;;;18.00;18.00;;;;;;;;5036831;28;8901;-83
2022/06/16 02:33:18;;;;;;;;;21.33;21.00;;;;;;;;5034147;28;9025;-83
2022/06/16 02:35:51;;;;;;;;;24.67;24.67;;;;;;;;5029119;28;9060;-82
2022/06/16 02:38:31;;;;;;;;;30.00;25.33;;;;;;;;5029913;28;9221;-82
2022/06/16 02:41:07;;;;;;;;;23.33;23.33;;;;;;;;5030967;28;9288;-83
2022/06/16 02:43:45;;;;;;;;;20.00;18.33;;;;;;;;5016431;28;9956;-83
2022/06/16 02:46:22;;;;;;;;;25.33;23.33;;;;;;;;5022372;28;9235;-84
2022/06/16 02:48:57;;;;;;;;;25.33;23.33;;;;;;;;5016862;28;9467;-83
2022/06/16 02:51:30;;;;;;;;;21.33;21.00;;;;;;;;5040143;28;9441;-83
2022/06/16 02:54:03;;;;;;;;;19.00;19.00;;;;;;;;5019883;28;9264;-82
2022/06/16 02:56:38;;;;;;;;;19.00;19.00;;;;;;;;5038641;28;10126;-82
2022/06/16 02:59:09;;;;;;;;;22.33;21.00;;;;;;;;5019056;28;9353;-82
2022/06/16 03:01:38;;;;;;;;;19.00;19.00;;;;;;;;5034430;28;9230;-83
2022/06/16 03:04:08;;;;;;;;;23.00;21.33;;;;;;;;4993591;28;9282;-82
2022/06/16 03:06:36;;;;;;;;;19.33;18.33;;;;;;;;5031858;28;9274;-82
2022/06/16 03:09:05;;;;;;;;;29.00;25.33;;;;;;;;5031685;28;9186;-81
2022/06/16 03:11:32;;;;;;;;;22.00;20.67;;;;;;;;5028999;28;9278;-82
2022/06/16 03:14:00;;;;;;;;;23.00;20.67;;;;;;;;5017151;28;9117;-84
2022/06/16 03:16:28;;;;;;;;;20.33;20.33;;;;;;;;5026265;28;9165;-81
2022/06/16 03:18:58;;;;;;;;;20.00;20.00;;;;;;;;5006713;28;9223;-80
2022/06/16 03:21:25;;;;;;;;;16.33;16.33;;;;;;;;5030206;28;10083;-82
2022/06/16 03:23:52;;;;;;;;;21.33;19.00;;;;;;;;5010181;28;9121;-81
2022/06/16 03:26:20;;;;;;;;;19.00;19.00;;;;;;;;5039589;28;9144;-82
2022/06/16 03:28:49;;;;;;;;;21.67;21.33;;;;;;;;5035533;28;9262;-82
2022/06/16 03:31:17;;;;;;;;;20.67;20.67;;;;;;;;5021918;28;9239;-82
2022/06/16 03:33:45;;;;;;;;;25.67;23.00;;;;;;;;5028887;28;9267;-82
2022/06/16 03:36:14;;;;;;;;;20.67;20.67;;;;;;;;5013397;28;9260;-83
2022/06/16 03:38:43;;;;;;;;;26.67;24.33;;;;;;;;5025356;28;9341;-81
2022/06/16 03:41:10;;;;;;;;;27.25;24.50;;;;;;;;5005477;28;10342;-82
2022/06/16 03:43:38;;;;;;;;;23.00;21.33;;;;;;;;5024763;28;9455;-82
2022/06/16 03:46:06;;;;;;;;;22.00;22.00;;;;;;;;5025002;28;9274;-82
2022/06/16 03:48:34;;;;;;;;;21.33;19.33;;;;;;;;5043986;28;9272;-82
2022/06/16 03:51:01;;;;;;;;;21.67;19.33;;;;;;;;5039207;28;9314;-83
2022/06/16 03:53:33;;;;;;;;;20.00;20.00;;;;;;;;5014413;28;9554;-83
2022/06/16 03:56:02;;;;;;;;;20.00;20.00;;;;;;;;5010438;28;9468;-82
2022/06/16 03:58:29;;;;;;;;;19.33;19.33;;;;;;;;5037880;28;9422;-82
2022/06/16 04:00:57;;;;;;;;;26.25;24.25;;;;;;;;5033525;28;9323;-81
2022/06/16 04:06:10;;;;;;;;;23.00;23.00;;;;;;;;5015079;28;9769;-82
2022/06/16 04:08:39;;;;;;;;;27.25;25.75;;;;;;;;5032696;28;9398;-81
2022/06/16 04:13:48;;;;;;;;;25.75;23.75;;;;;;;;5008221;28;10292;-81
2022/06/16 04:16:15;;;;;;;;;18.50;18.50;;;;;;;;5024181;28;10334;-82
2022/06/16 04:18:43;;;;;;;;;24.25;20.25;;;;;;;;5028509;28;9645;-81
2022/06/16 04:21:11;;;;;;;;;21.00;21.00;;;;;;;;5020120;28;9492;-84
2022/06/16 04:23:40;;;;;;;;;22.33;21.67;;;;;;;;5008783;28;9348;-85
2022/06/16 04:26:08;;;;;;;;;15.67;15.00;;;;;;;;5020793;28;9304;-83
2022/06/16 04:28:35;;;;;;;;;20.33;20.33;;;;;;;;5012077;28;9349;-83
2022/06/16 04:31:03;;;;;;;;;15.00;15.00;;;;;;;;5011694;28;9104;-82
2022/06/16 04:33:31;;;;;;;;;20.33;18.33;;;;;;;;5011582;28;9928;-83
2022/06/16 04:36:01;;;;;;;;;25.67;22.00;;;;;;;;5013367;28;9297;-84
2022/06/16 04:38:29;;;;;;;;;20.67;20.67;;;;;;;;5015114;28;9231;-84
2022/06/16 04:40:59;;;;;;;;;22.00;22.00;;;;;;;;5018335;28;9185;-82
2022/06/16 04:43:26;;;;;;;;;26.00;25.67;;;;;;;;5010644;28;9197;-83
2022/06/16 04:45:55;;;;;;;;;21.33;20.33;;;;;;;;5013322;28;9313;-80
2022/06/16 04:48:22;;;;;;;;;18.33;18.33;;;;;;;;5003914;28;9191;-85
2022/06/16 04:50:53;;;;;;;;;18.33;18.33;;;;;;;;5007451;28;9184;-85
2022/06/16 04:53:20;;;;;;;;;19.33;19.33;;;;;;;;5018495;28;9138;-83
2022/06/16 04:55:54;;;;;;;;;19.00;19.00;;;;;;;;5012005;28;9052;-85
2022/06/16 04:58:23;;;;;;;;;20.50;17.50;;;;;;;;5010538;28;9153;-83
2022/06/16 05:00:51;;;;;;;;;19.75;19.75;;;;;;;;5008926;28;8828;-85
2022/06/16 05:03:20;;;;;;;;;17.75;16.75;;;;;;;;5009632;28;8906;-83
2022/06/16 05:05:49;;;;;;;;;15.00;14.00;;;;;;;;5007865;28;9003;-86
2022/06/16 05:08:18;;;;;;;;;20.50;19.75;;;;;;;;5010290;28;8874;-84
2022/06/16 05:10:47;;;;;;;;;18.25;18.25;;;;;;;;5013980;28;8864;-86
2022/06/16 05:13:15;;;;;;;;;22.00;20.50;;;;;;;;5011404;28;8908;-85
2022/06/16 05:15:44;;;;;;;;;20.75;20.75;;;;;;;;5009896;28;9003;-83
2022/06/16 05:18:13;;;;;;;;;18.00;18.00;;;;;;;;5014760;28;8872;-84
2022/06/16 05:20:41;;;;;;;;;15.00;15.00;;;;;;;;5016332;28;8885;-85
2022/06/16 05:23:09;;;;;;;;;19.50;17.50;;;;;;;;5029301;28;8872;-85
2022/06/16 05:25:36;;;;;;;;;24.25;24.25;;;;;;;;5028137;28;8910;-85
2022/06/16 05:28:05;;;;;;;;;19.50;18.75;;;;;;;;5024397;28;8987;-86
2022/06/16 05:30:32;;;;;;;;;20.25;20.25;;;;;;;;5018754;28;9598;-81
2022/06/16 05:33:01;;;;;;;;;24.75;20.50;;;;;;;;5004804;28;8901;-82
2022/06/16 05:35:29;;;;;;;;;18.00;16.50;;;;;;;;4983658;28;8902;-80
2022/06/16 05:37:56;;;;;;;;;17.25;16.50;;;;;;;;5025342;28;8873;-80
2022/06/16 05:40:24;;;;;;;;;22.50;21.00;;;;;;;;5030546;28;8890;-80
2022/06/16 05:42:51;;;;;;;;;17.75;17.00;;;;;;;;5029959;28;8999;-83
2022/06/16 05:45:19;;;;;;;;;20.00;19.25;;;;;;;;5009991;28;8856;-81
2022/06/16 05:47:47;;;;;;;;;16.25;16.25;;;;;;;;5014210;28;10025;-82
2022/06/16 05:50:18;;;;;;;;;18.25;17.75;;;;;;;;5011109;28;8875;-82
2022/06/16 05:52:46;;;;;;;;;23.25;20.25;;;;;;;;5017801;28;8953;-82
2022/06/16 05:55:14;;;;;;;;;16.00;16.00;;;;;;;;5024073;28;8868;-82
2022/06/16 05:57:41;;;;;;;;;22.00;18.50;;;;;;;;5022862;28;8979;-80
2022/06/16 06:00:10;;;;;;;;;19.25;17.25;;;;;;;;5024538;28;8877;-80
2022/06/16 06:02:37;;;;;;;;;19.50;18.00;;;;;;;;5028578;28;8846;-80
2022/06/16 06:05:06;;;;;;;;;18.75;17.25;;;;;;;;5006684;28;8856;-80
2022/06/16 06:18:31;;;;;;;;;22.00;21.25;;;;;;;;5023644;28;9003;-79
2022/06/16 06:20:58;;;;;;;;;22.50;20.25;;;;;;;;5000837;28;8857;-81
2022/06/16 06:23:28;;;;;;;;;17.50;17.50;;;;;;;;5021577;28;8979;-84
2022/06/16 06:25:55;;;;;;;;;18.50;17.00;;;;;;;;5021029;28;8893;-82
2022/06/16 06:28:23;;;;;;;;;16.50;16.25;;;;;;;;5020233;28;8870;-83
2022/06/16 06:30:51;;;;;;;;;21.75;19.00;;;;;;;;4995799;28;8843;-80
2022/06/16 06:33:18;;;;;;;;;15.75;15.75;;;;;;;;5023898;28;8861;-82
2022/06/16 06:35:46;;;;;;;;;19.00;19.00;;;;;;;;4998079;28;8868;-84
2022/06/16 06:38:14;;;;;;;;;24.00;21.75;;;;;;;;5031722;28;8905;-84
2022/06/16 06:40:43;;;;;;;;;18.75;18.50;;;;;;;;5005013;28;8888;-81
2022/06/16 06:43:10;;;;;;;;;16.00;15.75;;;;;;;;5023963;28;9607;-83
2022/06/16 06:45:38;;;;;;;;;19.25;18.00;;;;;;;;5020292;28;8884;-83
2022/06/16 06:48:07;;;;;;;;;19.50;19.50;;;;;;;;5024372;28;8927;-84
2022/06/16 06:50:38;;;;;;;;;23.50;23.00;;;;;;;;4999390;28;8999;-81
2022/06/16 06:53:06;;;;;;;;;16.25;16.25;;;;;;;;5029604;28;8875;-84
2022/06/16 06:55:33;;;;;;;;;19.25;18.00;;;;;;;;5034014;28;8895;-84
2022/06/16 06:58:02;;;;;;;;;18.75;18.75;;;;;;;;5025091;28;8861;-79
2022/06/16 07:00:32;;;;;;;;;20.00;19.75;;;;;;;;5026477;28;8844;-81
2022/06/16 07:02:59;;;;;;;;;18.25;16.75;;;;;;;;5005876;28;8896;-80
2022/06/16 07:05:26;;;;;;;;;17.75;17.75;;;;;;;;5025137;28;8888;-81
2022/06/16 07:07:58;;;;;;;;;20.00;19.25;;;;;;;;5012221;28;8864;-82
2022/06/16 07:10:26;;;;;;;;;23.00;19.50;;;;;;;;5019029;28;8894;-80
2022/06/16 07:12:53;;;;;;;;;21.75;19.00;;;;;;;;5016686;28;8879;-80
2022/06/16 07:15:22;;;;;;;;;20.75;19.00;;;;;;;;5000840;28;8884;-82
2022/06/16 07:17:50;;;;;;;;;17.00;15.50;;;;;;;;5017350;28;8904;-83
2022/06/16 07:20:18;;;;;;;;;22.00;22.00;;;;;;;;5016415;28;8853;-81
2022/06/16 07:22:46;;;;;;;;;18.25;18.25;;;;;;;;5019908;28;8868;-80
2022/06/16 07:25:15;;;;;;;;;20.50;20.50;;;;;;;;5017386;28;8887;-80
2022/06/16 07:27:42;;;;;;;;;16.25;16.25;;;;;;;;5021809;28;8898;-80
2022/06/16 07:30:14;;;;;;;;;19.00;17.00;;;;;;;;5019126;28;9623;-80
2022/06/16 07:32:43;;;;;;;;;17.25;16.00;;;;;;;;5004591;28;8858;-81
2022/06/16 07:35:12;;;;;;;;;18.50;17.25;;;;;;;;5019872;28;8864;-81
2022/06/16 07:37:39;;;;;;;;;17.00;17.00;;;;;;;;5017562;28;8895;-81
2022/06/16 07:40:09;;;;;;;;;15.80;15.80;;;;;;;;4998529;28;8891;-80
2022/06/16 07:42:37;;;;;;;;;18.75;17.25;;;;;;;;5022837;28;8857;-81
2022/06/16 07:45:05;;;;;;;;;17.60;16.40;;;;;;;;5013544;28;8871;-81
2022/06/16 07:47:32;;;;;;;;;16.60;16.00;;;;;;;;5010489;28;8873;-80
2022/06/16 07:50:04;;;;;;;;;11.00;11.00;;;;;;;;5014398;28;8969;-81
2022/06/16 07:52:32;;;;;;;;;12.60;12.60;;;;;;;;5018353;28;8890;-81
2022/06/16 07:54:59;;;;;;;;;14.00;11.00;;;;;;;;5005146;28;8876;-81
2022/06/16 07:57:28;;;;;;;;;10.60;9.40;;;;;;;;5022929;28;8927;-81
2022/06/16 07:59:57;;;;;;;;;16.00;13.00;;;;;;;;5019542;28;8850;-81
2022/06/16 08:02:24;;;;;;;;;12.80;11.00;;;;;;;;4997500;28;8979;-81
2022/06/16 08:04:52;;;;;;;;;12.40;12.40;;;;;;;;5022177;28;8860;-81
2022/06/16 08:07:21;;;;;;;;;13.80;12.40;;;;;;;;4998820;28;8865;-81
2022/06/16 08:09:49;;;;;;;;;8.60;8.60;;;;;;;;5018686;28;8958;-80
2022/06/16 08:12:17;;;;;;;;;9.20;8.60;;;;;;;;5022229;28;8869;-81
2022/06/16 08:14:46;;;;;;;;;11.60;11.60;;;;;;;;5025278;28;8902;-81
2022/06/16 08:17:17;;;;;;;;;10.00;10.00;;;;;;;;5022442;28;8903;-81
2022/06/16 08:19:44;;;;;;;;;10.00;10.00;;;;;;;;5023123;28;8893;-81
2022/06/16 08:22:12;;;;;;;;;8.40;8.40;;;;;;;;5005228;28;8887;-81
2022/06/16 08:24:41;;;;;;;;;7.20;7.20;;;;;;;;5018395;28;8898;-81
2022/06/16 08:27:08;;;;;;;;;8.40;8.40;;;;;;;;5024566;28;8878;-81
2022/06/16 08:29:36;;;;;;;;;8.00;8.00;;;;;;;;5021789;28;8902;-81
2022/06/16 08:32:04;;;;;;;;;9.40;9.40;;;;;;;;5023532;28;8817;-80
2022/06/16 08:34:31;;;;;;;;;7.00;7.00;;;;;;;;5022480;28;8900;-81
2022/06/16 08:36:59;;;;;;;;;7.80;7.20;;;;;;;;5024435;28;9006;-81
2022/06/16 08:39:27;;;;;;;;;7.20;7.20;;;;;;;;5005543;28;8867;-81
2022/06/16 08:42:04;;;;;;;;;5.00;5.00;;;;;;;;5023174;28;8893;-80
2022/06/16 08:44:38;;;;;;;;;5.60;5.60;;;;;;;;5019030;28;8905;-80
2022/06/16 08:47:09;;;;;;;;;10.60;6.80;;;;;;;;5021797;28;8880;-81
2022/06/16 08:49:42;;;;;;;;;6.20;5.60;;;;;;;;5027550;28;8883;-81
2022/06/16 08:52:25;;;;;;;;;5.40;5.40;;;;;;;;5018960;28;8878;-81
2022/06/16 08:55:03;;;;;;;;;6.00;6.00;;;;;;;;5021411;28;8896;-80
2022/06/16 08:57:39;;;;;;;;;6.20;6.20;;;;;;;;5019475;28;8884;-81
2022/06/16 09:00:09;;;;;;;;;5.20;5.20;;;;;;;;5022170;28;8892;-79
2022/06/16 09:02:41;;;;;;;;;5.80;5.00;;;;;;;;5017184;28;8986;-81
2022/06/16 09:05:19;;;;;;;;;7.80;7.80;;;;;;;;5021494;28;8886;-80
2022/06/16 09:07:52;;;;;;;;;8.60;7.20;;;;;;;;5018254;28;9744;-81
2022/06/16 09:10:27;;;;;;;;;6.60;6.00;;;;;;;;5026238;28;8916;-81
2022/06/16 09:13:27;;;;;;;;;5.60;5.60;;;;;;;;5019333;28;8905;-81
2022/06/16 09:16:03;;;;;;;;;4.20;4.20;;;;;;;;5010172;28;8898;-80
2022/06/16 09:18:49;;;;;;;;;4.60;4.60;;;;;;;;5018996;28;8979;-80
2022/06/16 09:21:24;;;;;;;;;4.40;4.40;;;;;;;;5006486;28;9252;-80
2022/06/16 09:24:12;;;;;;;;;4.00;4.00;;;;;;;;5020107;28;8885;-81
2022/06/16 09:26:46;;;;;;;;;2.40;2.40;;;;;;;;5025048;28;8889;-80
2022/06/16 09:29:19;;;;;;;;;4.00;4.00;;;;;;;;5023156;28;8873;-81
2022/06/16 09:31:51;;;;;;;;;3.40;3.40;;;;;;;;5026495;28;8835;-81
2022/06/16 09:34:28;;;;;;;;;3.00;3.00;;;;;;;;5023975;28;8858;-80
2022/06/16 09:36:58;;;;;;;;;3.40;3.40;;;;;;;;5022403;28;9081;-81
2022/06/16 09:39:30;;;;;;;;;3.60;3.60;;;;;;;;5023010;28;9735;-80
2022/06/16 09:44:52;;;;;;;;;4.00;4.00;;;;;;;;5027992;28;8836;-79
2022/06/16 09:47:25;;;;;;;;;3.00;3.00;;;;;;;;5024080;28;8876;-80
2022/06/16 09:49:59;;;;;;;;;4.00;4.00;;;;;;;;5030855;28;8876;-81
2022/06/16 09:52:37;;;;;;;;;0.00;0.00;;;;;;;;5021339;28;8889;-81
2022/06/16 09:55:09;;;;;;;;;4.00;4.00;;;;;;;;5027862;28;8885;-80
2022/06/16 09:57:41;;;;;;;;;4.00;4.00;;;;;;;;5023307;28;8930;-80
2022/06/16 10:00:14;;;;;;;;;3.60;3.60;;;;;;;;5006808;28;8873;-80
2022/06/16 10:02:46;;;;;;;;;4.20;2.80;;;;;;;;5030617;28;8864;-81
2022/06/16 10:05:17;;;;;;;;;3.00;3.00;;;;;;;;5021824;28;8867;-80
2022/06/16 10:07:51;;;;;;;;;2.60;2.60;;;;;;;;5026319;28;8876;-81
2022/06/16 10:10:23;;;;;;;;;3.00;3.00;;;;;;;;5024750;28;8843;-80
2022/06/16 10:12:54;;;;;;;;;2.60;2.60;;;;;;;;5025332;28;8927;-80
2022/06/16 10:15:31;;;;;;;;;4.80;3.00;;;;;;;;5009145;28;8839;-81
2022/06/16 10:17:59;;;;;;;;;3.00;3.00;;;;;;;;5025774;28;8872;-80
2022/06/16 10:20:28;;;;;;;;;2.60;2.60;;;;;;;;5033145;28;8850;-80
2022/06/16 10:22:59;;;;;;;;;3.00;3.00;;;;;;;;5023479;28;8965;-81
2022/06/16 10:37:26;;;;;;;;;4.20;3.80;;;;;;;;5836230;22;8754;-80
2022/06/16 10:39:57;;;;;;;;;3.60;3.00;;;;;;;;5037164;28;8874;-80
2022/06/16 10:42:27;;;;;;;;;4.00;4.00;;;;;;;;5035038;28;8930;-80
2022/06/16 10:44:58;;;;;;;;;1.80;1.80;;;;;;;;5032599;28;8961;-80
2022/06/16 10:47:32;;;;;;;;;3.80;3.80;;;;;;;;5036772;28;8872;-80
2022/06/16 10:49:59;;;;;;;;;5.00;5.00;;;;;;;;5035246;28;8890;-82
2022/06/16 10:52:32;;;;;;;;;3.00;3.00;;;;;;;;5031828;28;8855;-80
2022/06/16 10:55:06;;;;;;;;;4.60;3.20;;;;;;;;5036263;28;8851;-81
2022/06/16 10:57:41;;;;;;;;;5.20;3.80;;;;;;;;5014677;28;8880;-80
2022/06/16 11:00:15;;;;;;;;;3.00;3.00;;;;;;;;5033366;28;8874;-80
2022/06/16 11:02:58;;;;;;;;;3.00;3.00;;;;;;;;5033086;28;8870;-80
2022/06/16 11:05:30;;;;;;;;;4.00;4.00;;;;;;;;5033243;28;9606;-80
2022/06/16 11:08:10;;;;;;;;;4.60;4.60;;;;;;;;5028496;28;9768;-79
2022/06/16 11:10:40;;;;;;;;;3.40;3.40;;;;;;;;5027191;28;8870;-80
2022/06/16 11:13:09;;;;;;;;;3.80;3.80;;;;;;;;5020572;28;8897;-79
2022/06/16 11:15:39;;;;;;;;;5.00;5.00;;;;;;;;5035642;28;9626;-76
2022/06/16 11:18:10;;;;;;;;;5.00;5.00;;;;;;;;5041280;28;8929;-77
2022/06/16 11:20:39;;;;;;;;;4.20;4.20;;;;;;;;5031412;28;8868;-77
2022/06/16 11:23:26;;;;;;;;;4.00;4.00;;;;;;;;5039226;28;8867;-77
2022/06/16 11:25:58;;;;;;;;;5.40;4.20;;;;;;;;5030217;28;8860;-77
2022/06/16 11:28:26;;;;;;;;;2.60;2.60;;;;;;;;5026380;28;8870;-75
2022/06/16 11:30:57;;;;;;;;;3.00;3.00;;;;;;;;5032471;28;8800;-76
2022/06/16 11:36:15;;;;;;;;;5.60;3.00;;;;;;;;5001749;28;8830;-80
2022/06/16 11:38:47;;;;;;;;;2.80;2.80;;;;;;;;5021992;28;8916;-82
2022/06/16 11:41:15;;;;;;;;;4.00;2.00;;;;;;;;5024637;28;9714;-83
2022/06/16 11:44:07;;;;;;;;;2.80;2.80;;;;;;;;5024166;28;8883;-81
2022/06/16 11:46:41;;;;;;;;;4.00;4.00;;;;;;;;5015282;28;8866;-80
2022/06/16 11:49:19;;;;;;;;;4.00;4.00;;;;;;;;5008193;28;8914;-78
2022/06/16 11:51:51;;;;;;;;;5.40;4.00;;;;;;;;5018250;28;8933;-80
2022/06/16 11:54:30;;;;;;;;;3.60;3.60;;;;;;;;5024420;28;8912;-79
2022/06/16 11:57:05;;;;;;;;;3.20;3.20;;;;;;;;5003690;28;8868;-78
2022/06/16 11:59:58;;;;;;;;;3.60;3.60;;;;;;;;5023631;28;8931;-78
2022/06/16 12:02:47;;;;;;;;;3.60;3.60;;;;;;;;5031942;28;8836;-79
2022/06/16 12:05:27;;;;;;;;;3.00;3.00;;;;;;;;5032922;28;8870;-79
2022/06/16 12:08:06;;;;;;;;;4.80;3.00;;;;;;;;5024663;28;8843;-78
2022/06/16 12:10:42;;;;;;;;;3.00;3.00;;;;;;;;5034214;28;8874;-80
2022/06/16 12:13:17;;;;;;;;;3.00;3.00;;;;;;;;5009355;28;8864;-78
2022/06/16 12:15:50;;;;;;;;;3.00;3.00;;;;;;;;5007193;28;8944;-77
2022/06/16 12:18:36;;;;;;;;;5.20;3.80;;;;;;;;5024002;28;8852;-77
2022/06/16 12:21:10;;;;;;;;;5.60;5.60;;;;;;;;5029767;28;8850;-81
2022/06/16 12:23:44;;;;;;;;;7.00;4.00;;;;;;;;5027585;28;8863;-78
2022/06/16 12:26:20;;;;;;;;;6.60;5.20;;;;;;;;5026478;28;8868;-78
2022/06/16 12:28:54;;;;;;;;;6.60;5.20;;;;;;;;5027947;28;9731;-77
2022/06/16 12:31:24;;;;;;;;;4.40;4.40;;;;;;;;5031853;28;8796;-78
2022/06/16 12:34:06;;;;;;;;;5.60;5.60;;;;;;;;5019894;28;8912;-85
2022/06/16 12:36:39;;;;;;;;;4.00;4.00;;;;;;;;5035288;28;9609;-79
2022/06/16 12:39:10;;;;;;;;;5.00;5.00;;;;;;;;5022236;28;8864;-79
2022/06/16 12:41:41;;;;;;;;;3.20;3.20;;;;;;;;5029355;28;8844;-81
2022/06/16 12:44:13;;;;;;;;;3.00;3.00;;;;;;;;5027986;28;8952;-77
2022/06/16 12:46:45;;;;;;;;;3.60;3.60;;;;;;;;5026106;28;8870;-79
2022/06/16 12:49:16;;;;;;;;;4.00;4.00;;;;;;;;5024959;28;8916;-81
2022/06/16 12:51:47;;;;;;;;;4.60;4.60;;;;;;;;5015788;28;8886;-79
2022/06/16 12:54:19;;;;;;;;;4.00;4.00;;;;;;;;5020482;28;8885;-90
2022/06/16 12:56:52;;;;;;;;;3.20;3.20;;;;;;;;5010299;28;9001;-80
2022/06/16 12:59:24;;;;;;;;;4.60;4.60;;;;;;;;5021781;28;8884;-79
2022/06/16 13:01:55;;;;;;;;;3.20;3.20;;;;;;;;5020430;28;8834;-79
2022/06/16 13:04:25;;;;;;;;;4.60;4.60;;;;;;;;5031859;28;8858;-79
2022/06/16 13:06:55;;;;;;;;;4.40;4.00;;;;;;;;5030516;28;8876;-80
2022/06/16 13:09:24;;;;;;;;;4.40;4.40;;;;;;;;5029957;28;8892;-80
2022/06/16 13:11:57;;;;;;;;;4.60;4.60;;;;;;;;5030966;28;8919;-79
2022/06/16 13:14:30;;;;;;;;;4.20;3.60;;;;;;;;5023676;28;8856;-78
2022/06/16 13:17:02;;;;;;;;;4.00;4.00;;;;;;;;5025106;28;8866;-78
2022/06/16 13:19:35;;;;;;;;;4.60;3.00;;;;;;;;5026567;28;8844;-78
2022/06/16 13:22:07;;;;;;;;;4.20;4.20;;;;;;;;5030066;28;8888;-78
2022/06/16 13:24:42;;;;;;;;;5.00;5.00;;;;;;;;5032820;28;8921;-79
2022/06/16 13:27:14;;;;;;;;;4.60;4.60;;;;;;;;5027867;28;8976;-80
2022/06/16 13:29:53;;;;;;;;;5.00;4.60;;;;;;;;5031599;28;8861;-78
2022/06/16 13:32:38;;;;;;;;;5.00;5.00;;;;;;;;5022561;28;8927;-79
2022/06/16 13:35:33;;;;;;;;;4.00;4.00;;;;;;;;5020120;28;9402;-80
2022/06/16 13:38:23;;;;;;;;;3.40;3.40;;;;;;;;5025004;28;8872;-79
2022/06/16 13:41:35;;;;;;;;;3.80;3.80;;;;;;;;5028043;28;8874;-78
2022/06/16 13:44:24;;;;;;;;;6.20;3.40;;;;;;;;5005509;28;8871;-78
2022/06/16 13:47:20;;;;;;;;;5.20;3.80;;;;;;;;5031572;28;8864;-78
2022/06/16 13:50:15;;;;;;;;;3.20;3.20;;;;;;;;5016279;28;9721;-81
2022/06/16 13:52:46;;;;;;;;;2.80;2.80;;;;;;;;5000515;28;9021;-85
2022/06/16 13:55:28;;;;;;;;;4.00;2.60;;;;;;;;5023197;28;8879;-82
2022/06/16 13:58:20;;;;;;;;;2.80;2.80;;;;;;;;5024232;28;9655;-77
2022/06/16 14:01:10;;;;;;;;;3.00;3.00;;;;;;;;5018395;28;8811;-79
2022/06/16 14:03:47;;;;;;;;;5.00;5.00;;;;;;;;5013851;28;8878;-79
2022/06/16 14:06:15;;;;;;;;;3.00;3.00;;;;;;;;4997195;28;8859;-79
2022/06/16 14:08:47;;;;;;;;;3.00;3.00;;;;;;;;5028526;28;8938;-82
2022/06/16 14:11:22;;;;;;;;;3.80;3.80;;;;;;;;5033848;28;8887;-77
2022/06/16 14:14:10;;;;;;;;;4.60;4.60;;;;;;;;5036572;28;8979;-83
2022/06/16 14:16:40;;;;;;;;;3.00;3.00;;;;;;;;5025631;28;8880;-79
2022/06/16 14:19:18;;;;;;;;;4.20;4.20;;;;;;;;5026055;28;8892;-81
2022/06/16 14:21:51;;;;;;;;;4.60;3.00;;;;;;;;5031309;28;8902;-81
2022/06/16 14:24:26;;;;;;;;;3.20;3.20;;;;;;;;5029484;28;8986;-82
2022/06/16 14:26:54;;;;;;;;;3.20;2.00;;;;;;;;5008965;28;9701;-83
2022/06/16 14:29:26;;;;;;;;;3.00;3.00;;;;;;;;5026551;28;8848;-83
2022/06/16 14:32:00;;;;;;;;;3.60;3.00;;;;;;;;5007934;28;8936;-84
2022/06/16 14:34:33;;;;;;;;;4.40;4.40;;;;;;;;5001463;28;8854;-82
2022/06/16 14:37:10;;;;;;;;;3.00;3.00;;;;;;;;5019696;28;8885;-82
2022/06/16 14:39:43;;;;;;;;;3.00;3.00;;;;;;;;5025701;28;8870;-79
2022/06/16 14:42:16;;;;;;;;;5.40;3.60;;;;;;;;5020006;28;8846;-80
2022/06/16 14:44:51;;;;;;;;;2.00;2.00;;;;;;;;5019464;28;8868;-78
2022/06/16 14:47:28;;;;;;;;;3.60;3.40;;;;;;;;5025052;28;8850;-81
2022/06/16 14:50:01;;;;;;;;;2.40;2.40;;;;;;;;5023728;28;8889;-79
2022/06/16 14:52:35;;;;;;;;;3.80;3.80;;;;;;;;5030296;28;8884;-81
2022/06/16 14:55:08;;;;;;;;;3.00;3.00;;;;;;;;5028917;28;8894;-78
2022/06/16 14:57:40;;;;;;;;;2.00;2.00;;;;;;;;5031665;28;8908;-79
2022/06/16 15:00:17;;;;;;;;;4.00;4.00;;;;;;;;5027565;28;8869;-81
2022/06/16 15:02:46;;;;;;;;;2.80;2.80;;;;;;;;5032606;28;8978;-80
2022/06/16 15:05:15;;;;;;;;;3.60;3.60;;;;;;;;5026450;28;8875;-78
2022/06/16 15:07:44;;;;;;;;;4.80;3.00;;;;;;;;5032698;28;9464;-81
2022/06/16 15:10:15;;;;;;;;;3.40;3.40;;;;;;;;5032451;28;8863;-80
2022/06/16 15:12:44;;;;;;;;;3.00;3.00;;;;;;;;5034337;28;8890;-79
2022/06/16 15:15:15;;;;;;;;;4.00;4.00;;;;;;;;5023477;28;8973;-78
2022/06/16 15:20:31;;;;;;;;;4.60;4.60;;;;;;;;5023316;28;8828;-78
2022/06/16 15:22:59;;;;;;;;;3.40;3.40;;;;;;;;5035545;28;8862;-81
2022/06/16 15:25:39;;;;;;;;;4.20;4.20;;;;;;;;5010842;28;8845;-79
2022/06/16 15:28:18;;;;;;;;;2.20;2.20;;;;;;;;5035804;28;8995;-80
2022/06/16 15:30:47;;;;;;;;;3.00;3.00;;;;;;;;5024202;28;8931;-78
2022/06/16 15:36:10;;;;;;;;;4.00;4.00;;;;;;;;5025181;28;8834;-79
2022/06/16 15:38:39;;;;;;;;;3.40;3.40;;;;;;;;5029445;28;8866;-78
2022/06/16 15:41:27;;;;;;;;;4.00;4.00;;;;;;;;5028171;28;8854;-77
2022/06/16 15:43:58;;;;;;;;;4.00;4.00;;;;;;;;5027299;28;8859;-82
2022/06/16 15:46:28;;;;;;;;;3.80;3.80;;;;;;;;5024691;28;9639;-81
2022/06/16 15:48:58;;;;;;;;;3.80;3.80;;;;;;;;4992772;28;8898;-82
2022/06/16 15:51:27;;;;;;;;;3.80;3.80;;;;;;;;5029023;28;8877;-81
2022/06/16 15:53:54;;;;;;;;;4.80;4.20;;;;;;;;5026148;28;8902;-78